sensor_id;sensor_type;location;lat;lon;timestamp;pressure;altitude;pressure_sealevel;temperature;humidity
22653;BME280;11493;43.344;26.226;2022-11-20T00:01:23;98704.13;;;11.65;100.00
22653;BME280;11493;43.344;26.226;2022-11-20T00:03:54;98715.34;;;11.60;100.00
22653;BME280;11493;43.344;26.226;2022-11-20T00:06:22;98712.78;;;11.55;100.00
22653;BME280;11493;43.344;26.226;2022-11-20T00:08:51;98720.84;;;11.60;100.00
22653;BME280;11493;43.344;26.226;2022-11-20T00:11:21;98716.00;;;11.57;100.00
22653;BME280;11493;43.344;26.226;2022-11-20T00:13:51;98716.69;;;11.54;100.00
22653;BME280;11493;43.344;26.226;2022-11-20T00:16:21;98712.78;;;11.55;100.00
22653;BME280;11493;43.344;26.226;2022-11-20T00:18:49;98720.66;;;11.65;100.00
22653;BME280;11493;43.344;26.226;2022-11-20T00:21:27;98717.22;;;11.68;100.00
22653;BME280;11493;43.344;26.226;2022-11-20T00:23:57;98714.38;;;11.98;100.00
22653;BME280;11493;43.344;26.226;2022-11-20T00:26:26;98715.47;;;12.50;100.00
22653;BME280;11493;43.344;26.226;2022-11-20T00:28:56;98716.47;;;13.84;100.00
22653;BME280;11493;43.344;26.226;2022-11-20T00:31:25;98709.19;;;14.35;100.00
22653;BME280;11493;43.344;26.226;2022-11-20T00:33:52;98714.16;;;14.89;100.00
22653;BME280;11493;43.344;26.226;2022-11-20T00:36:22;98703.25;;;15.47;100.00
22653;BME280;11493;43.344;26.226;2022-11-20T00:38:54;98653.50;;;15.54;100.00
22653;BME280;11493;43.344;26.226;2022-11-20T00:41:23;98721.41;;;15.98;100.00
22653;BME280;11493;43.344;26.226;2022-11-20T00:43:52;98718.97;;;16.16;100.00
22653;BME280;11493;43.344;26.226;2022-11-20T00:46:21;98712.47;;;16.51;100.00
22653;BME280;11493;43.344;26.226;2022-11-20T00:48:49;98699.75;;;16.69;100.00
22653;BME280;11493;43.344;26.226;2022-11-20T00:51:19;98702.94;;;16.71;100.00
22653;BME280;11493;43.344;26.226;2022-11-20T00:53:47;98703.88;;;16.79;100.00
22653;BME280;11493;43.344;26.226;2022-11-20T00:56:17;98696.34;;;16.79;100.00
22653;BME280;11493;43.344;26.226;2022-11-20T00:58:48;98682.41;;;16.75;100.00
22653;BME280;11493;43.344;26.226;2022-11-20T01:01:18;98688.00;;;16.79;100.00
22653;BME280;11493;43.344;26.226;2022-11-20T01:03:48;98677.19;;;16.97;100.00
22653;BME280;11493;43.344;26.226;2022-11-20T01:06:17;98686.00;;;17.02;100.00
22653;BME280;11493;43.344;26.226;2022-11-20T01:08:45;98672.34;;;17.20;100.00
22653;BME280;11493;43.344;26.226;2022-11-20T01:11:18;98669.31;;;17.29;100.00
22653;BME280;11493;43.344;26.226;2022-11-20T01:13:50;98677.91;;;17.47;100.00
22653;BME280;11493;43.344;26.226;2022-11-20T01:16:23;98670.13;;;17.59;100.00
22653;BME280;11493;43.344;26.226;2022-11-20T01:18:55;98676.16;;;17.65;100.00
22653;BME280;11493;43.344;26.226;2022-11-20T01:21:31;98671.47;;;17.69;100.00
22653;BME280;11493;43.344;26.226;2022-11-20T01:23:59;98669.13;;;17.71;100.00
22653;BME280;11493;43.344;26.226;2022-11-20T01:26:29;98681.38;;;17.66;100.00
22653;BME280;11493;43.344;26.226;2022-11-20T01:28:58;98686.06;;;17.92;100.00
22653;BME280;11493;43.344;26.226;2022-11-20T01:31:29;98687.66;;;17.93;100.00
22653;BME280;11493;43.344;26.226;2022-11-20T01:33:59;98680.66;;;18.06;100.00
22653;BME280;11493;43.344;26.226;2022-11-20T01:36:28;98669.28;;;17.85;100.00
22653;BME280;11493;43.344;26.226;2022-11-20T01:38:59;98678.88;;;17.91;100.00
22653;BME280;11493;43.344;26.226;2022-11-20T01:41:29;98685.00;;;18.04;99.92
22653;BME280;11493;43.344;26.226;2022-11-20T01:44:18;98685.28;;;17.95;100.00
22653;BME280;11493;43.344;26.226;2022-11-20T01:46:57;98683.22;;;17.89;100.00
22653;BME280;11493;43.344;26.226;2022-11-20T01:49:34;98682.94;;;17.97;100.00
22653;BME280;11493;43.344;26.226;2022-11-20T01:52:08;98671.94;;;18.08;99.67
22653;BME280;11493;43.344;26.226;2022-11-20T01:54:43;98675.97;;;18.14;98.86
22653;BME280;11493;43.344;26.226;2022-11-20T01:57:15;98672.31;;;18.06;99.05
22653;BME280;11493;43.344;26.226;2022-11-20T02:00:15;98670.25;;;18.00;99.74
22653;BME280;11493;43.344;26.226;2022-11-20T02:02:47;98661.28;;;17.80;100.00
22653;BME280;11493;43.344;26.226;2022-11-20T02:05:23;98670.16;;;17.93;100.00
22653;BME280;11493;43.344;26.226;2022-11-20T02:07:52;98671.84;;;18.01;99.56
22653;BME280;11493;43.344;26.226;2022-11-20T02:10:21;98638.28;;;17.87;99.81
22653;BME280;11493;43.344;26.226;2022-11-20T02:12:48;98655.66;;;18.10;99.11
22653;BME280;11493;43.344;26.226;2022-11-20T02:15:34;98650.41;;;18.05;98.63
22653;BME280;11493;43.344;26.226;2022-11-20T02:18:04;98656.25;;;18.30;97.90
22653;BME280;11493;43.344;26.226;2022-11-20T02:20:32;98646.34;;;18.32;97.18
22653;BME280;11493;43.344;26.226;2022-11-20T02:23:05;98630.31;;;18.22;97.23
22653;BME280;11493;43.344;26.226;2022-11-20T02:25:36;98654.63;;;18.25;97.18
22653;BME280;11493;43.344;26.226;2022-11-20T02:28:05;98651.03;;;18.25;97.62
22653;BME280;11493;43.344;26.226;2022-11-20T02:30:33;98654.63;;;18.25;97.37
22653;BME280;11493;43.344;26.226;2022-11-20T02:33:00;98652.19;;;18.20;97.83
22653;BME280;11493;43.344;26.226;2022-11-20T02:38:01;98638.72;;;18.26;97.03
22653;BME280;11493;43.344;26.226;2022-11-20T02:40:29;98630.28;;;18.19;97.16
22653;BME280;11493;43.344;26.226;2022-11-20T02:42:56;98639.69;;;18.07;98.13
22653;BME280;11493;43.344;26.226;2022-11-20T02:45:24;98645.28;;;18.07;98.46
22653;BME280;11493;43.344;26.226;2022-11-20T02:47:52;98628.69;;;18.18;97.39
22653;BME280;11493;43.344;26.226;2022-11-20T02:50:20;98644.84;;;18.42;96.58
22653;BME280;11493;43.344;26.226;2022-11-20T02:52:47;98646.06;;;18.45;96.06
22653;BME280;11493;43.344;26.226;2022-11-20T02:55:14;98628.88;;;18.39;95.67
22653;BME280;11493;43.344;26.226;2022-11-20T02:57:41;98642.88;;;18.46;95.71
22653;BME280;11493;43.344;26.226;2022-11-20T03:00:09;98636.38;;;18.31;96.03
22653;BME280;11493;43.344;26.226;2022-11-20T03:02:37;98641.13;;;18.27;96.71
22653;BME280;11493;43.344;26.226;2022-11-20T03:05:05;98629.09;;;18.20;96.91
22653;BME280;11493;43.344;26.226;2022-11-20T03:07:34;98624.25;;;18.13;97.00
22653;BME280;11493;43.344;26.226;2022-11-20T03:10:05;98630.56;;;18.06;97.72
22653;BME280;11493;43.344;26.226;2022-11-20T03:12:33;98628.44;;;18.33;95.92
22653;BME280;11493;43.344;26.226;2022-11-20T03:15:00;98638.06;;;18.39;95.58
22653;BME280;11493;43.344;26.226;2022-11-20T03:17:27;98632.31;;;18.22;96.26
22653;BME280;11493;43.344;26.226;2022-11-20T03:19:57;98619.97;;;18.23;96.42
22653;BME280;11493;43.344;26.226;2022-11-20T03:22:27;98620.41;;;18.25;95.94
22653;BME280;11493;43.344;26.226;2022-11-20T03:24:55;98622.72;;;18.19;96.03
22653;BME280;11493;43.344;26.226;2022-11-20T03:27:23;98599.16;;;18.10;96.22
22653;BME280;11493;43.344;26.226;2022-11-20T03:29:50;98621.81;;;18.08;97.06
22653;BME280;11493;43.344;26.226;2022-11-20T03:32:17;98625.16;;;18.24;95.92
22653;BME280;11493;43.344;26.226;2022-11-20T03:34:44;98621.94;;;18.19;95.77
22653;BME280;11493;43.344;26.226;2022-11-20T03:37:11;98625.94;;;18.21;95.68
22653;BME280;11493;43.344;26.226;2022-11-20T03:39:39;98630.25;;;18.15;95.85
22653;BME280;11493;43.344;26.226;2022-11-20T03:42:06;98637.75;;;18.11;96.23
22653;BME280;11493;43.344;26.226;2022-11-20T03:44:53;98627.72;;;18.03;96.50
22653;BME280;11493;43.344;26.226;2022-11-20T03:47:21;98630.94;;;18.05;96.26
22653;BME280;11493;43.344;26.226;2022-11-20T03:49:49;98632.91;;;18.04;96.43
22653;BME280;11493;43.344;26.226;2022-11-20T03:52:17;98643.50;;;17.92;96.68
22653;BME280;11493;43.344;26.226;2022-11-20T03:54:44;98633.47;;;17.84;97.40
22653;BME280;11493;43.344;26.226;2022-11-20T03:57:11;98637.84;;;17.85;97.60
22653;BME280;11493;43.344;26.226;2022-11-20T03:59:41;98635.16;;;17.92;97.04
22653;BME280;11493;43.344;26.226;2022-11-20T04:02:08;98624.09;;;17.99;96.90
22653;BME280;11493;43.344;26.226;2022-11-20T04:04:35;98628.22;;;18.12;96.33
22653;BME280;11493;43.344;26.226;2022-11-20T04:07:02;98626.69;;;18.18;95.67
22653;BME280;11493;43.344;26.226;2022-11-20T04:09:30;98629.41;;;18.11;95.67
22653;BME280;11493;43.344;26.226;2022-11-20T04:11:57;98631.69;;;18.02;97.01
22653;BME280;11493;43.344;26.226;2022-11-20T04:14:25;98638.91;;;18.06;96.84
22653;BME280;11493;43.344;26.226;2022-11-20T04:16:52;98631.28;;;18.00;96.66
22653;BME280;11493;43.344;26.226;2022-11-20T04:19:19;98638.31;;;17.90;97.67
22653;BME280;11493;43.344;26.226;2022-11-20T04:21:46;98643.84;;;17.87;97.57
22653;BME280;11493;43.344;26.226;2022-11-20T04:24:14;98649.84;;;17.89;97.99
22653;BME280;11493;43.344;26.226;2022-11-20T04:26:43;98661.38;;;17.91;97.83
22653;BME280;11493;43.344;26.226;2022-11-20T04:29:11;98667.28;;;17.86;97.86
22653;BME280;11493;43.344;26.226;2022-11-20T04:31:38;98661.19;;;17.73;98.45
22653;BME280;11493;43.344;26.226;2022-11-20T04:34:07;98657.94;;;17.67;98.58
22653;BME280;11493;43.344;26.226;2022-11-20T04:36:34;98665.00;;;17.61;99.76
22653;BME280;11493;43.344;26.226;2022-11-20T04:39:05;98671.56;;;17.76;99.03
22653;BME280;11493;43.344;26.226;2022-11-20T04:41:35;98665.25;;;17.83;98.39
22653;BME280;11493;43.344;26.226;2022-11-20T04:44:04;98668.56;;;17.92;97.73
22653;BME280;11493;43.344;26.226;2022-11-20T04:46:35;98668.97;;;17.94;97.45
22653;BME280;11493;43.344;26.226;2022-11-20T04:49:03;98659.88;;;17.97;96.85
22653;BME280;11493;43.344;26.226;2022-11-20T04:51:32;98650.59;;;17.86;97.87
22653;BME280;11493;43.344;26.226;2022-11-20T04:53:59;98646.28;;;17.92;97.34
22653;BME280;11493;43.344;26.226;2022-11-20T04:56:26;98645.09;;;17.93;96.93
22653;BME280;11493;43.344;26.226;2022-11-20T04:58:53;98647.88;;;17.93;97.17
22653;BME280;11493;43.344;26.226;2022-11-20T05:01:23;98659.94;;;18.04;96.74
22653;BME280;11493;43.344;26.226;2022-11-20T05:03:51;98644.94;;;18.12;95.71
22653;BME280;11493;43.344;26.226;2022-11-20T05:06:19;98650.50;;;18.12;95.59
22653;BME280;11493;43.344;26.226;2022-11-20T05:08:47;98659.53;;;18.02;95.74
22653;BME280;11493;43.344;26.226;2022-11-20T05:11:16;98658.44;;;18.10;95.75
22653;BME280;11493;43.344;26.226;2022-11-20T05:13:44;98648.13;;;18.14;95.05
22653;BME280;11493;43.344;26.226;2022-11-20T05:16:13;98654.53;;;18.18;95.41
22653;BME280;11493;43.344;26.226;2022-11-20T05:18:41;98656.06;;;18.12;95.58
22653;BME280;11493;43.344;26.226;2022-11-20T05:21:10;98664.84;;;18.14;95.53
22653;BME280;11493;43.344;26.226;2022-11-20T05:23:37;98654.47;;;18.11;95.04
22653;BME280;11493;43.344;26.226;2022-11-20T05:26:08;98655.22;;;18.08;95.35
22653;BME280;11493;43.344;26.226;2022-11-20T05:28:36;98647.63;;;18.05;95.48
22653;BME280;11493;43.344;26.226;2022-11-20T05:31:11;98652.69;;;17.96;95.58
22653;BME280;11493;43.344;26.226;2022-11-20T05:33:40;98660.63;;;17.94;95.90
22653;BME280;11493;43.344;26.226;2022-11-20T05:36:11;98657.47;;;17.95;95.84
22653;BME280;11493;43.344;26.226;2022-11-20T05:38:40;98663.91;;;18.03;95.89
22653;BME280;11493;43.344;26.226;2022-11-20T05:41:11;98671.16;;;18.11;94.52
22653;BME280;11493;43.344;26.226;2022-11-20T05:43:39;98665.59;;;18.11;94.88
22653;BME280;11493;43.344;26.226;2022-11-20T05:46:09;98662.41;;;18.09;94.88
22653;BME280;11493;43.344;26.226;2022-11-20T05:48:38;98675.00;;;17.99;95.10
22653;BME280;11493;43.344;26.226;2022-11-20T05:51:08;98696.91;;;18.01;95.18
22653;BME280;11493;43.344;26.226;2022-11-20T05:53:37;98685.25;;;17.92;95.65
22653;BME280;11493;43.344;26.226;2022-11-20T05:56:14;98695.63;;;17.95;95.72
22653;BME280;11493;43.344;26.226;2022-11-20T05:58:42;98681.19;;;17.86;96.04
22653;BME280;11493;43.344;26.226;2022-11-20T06:01:19;98691.09;;;17.83;96.12
22653;BME280;11493;43.344;26.226;2022-11-20T06:03:47;98691.50;;;17.82;96.29
22653;BME280;11493;43.344;26.226;2022-11-20T06:06:17;98690.78;;;17.88;96.03
22653;BME280;11493;43.344;26.226;2022-11-20T06:08:48;98691.91;;;17.84;96.22
22653;BME280;11493;43.344;26.226;2022-11-20T06:11:16;98700.34;;;17.91;96.13
22653;BME280;11493;43.344;26.226;2022-11-20T06:13:47;98687.56;;;17.86;96.21
22653;BME280;11493;43.344;26.226;2022-11-20T06:16:17;98709.84;;;17.86;96.43
22653;BME280;11493;43.344;26.226;2022-11-20T06:18:45;98701.88;;;17.85;96.34
22653;BME280;11493;43.344;26.226;2022-11-20T06:21:16;98708.66;;;17.87;96.78
22653;BME280;11493;43.344;26.226;2022-11-20T06:23:45;98702.28;;;17.87;96.41
22653;BME280;11493;43.344;26.226;2022-11-20T06:26:19;98714.66;;;17.89;96.88
22653;BME280;11493;43.344;26.226;2022-11-20T06:28:46;98712.28;;;17.91;96.51
22653;BME280;11493;43.344;26.226;2022-11-20T06:31:16;98729.03;;;17.95;96.46
22653;BME280;11493;43.344;26.226;2022-11-20T06:33:45;98715.50;;;17.93;96.56
22653;BME280;11493;43.344;26.226;2022-11-20T06:36:14;98722.66;;;17.94;96.36
22653;BME280;11493;43.344;26.226;2022-11-20T06:38:45;98712.66;;;17.90;96.63
22653;BME280;11493;43.344;26.226;2022-11-20T06:41:18;98719.34;;;17.82;96.86
22653;BME280;11493;43.344;26.226;2022-11-20T06:43:46;98701.81;;;17.78;96.73
22653;BME280;11493;43.344;26.226;2022-11-20T06:46:17;98702.56;;;17.75;96.83
22653;BME280;11493;43.344;26.226;2022-11-20T06:48:46;98694.13;;;17.67;97.11
22653;BME280;11493;43.344;26.226;2022-11-20T06:51:14;98710.84;;;17.71;97.17
22653;BME280;11493;43.344;26.226;2022-11-20T06:53:42;98690.44;;;17.63;97.41
22653;BME280;11493;43.344;26.226;2022-11-20T06:56:09;98708.75;;;17.64;97.44
22653;BME280;11493;43.344;26.226;2022-11-20T06:58:37;98706.72;;;17.61;97.82
22653;BME280;11493;43.344;26.226;2022-11-20T07:01:13;98696.78;;;17.60;97.89
22653;BME280;11493;43.344;26.226;2022-11-20T07:03:42;98699.16;;;17.62;98.11
22653;BME280;11493;43.344;26.226;2022-11-20T07:06:11;98711.97;;;17.66;97.97
22653;BME280;11493;43.344;26.226;2022-11-20T07:08:38;98692.00;;;17.61;97.83
22653;BME280;11493;43.344;26.226;2022-11-20T07:11:07;98711.66;;;17.71;97.88
22653;BME280;11493;43.344;26.226;2022-11-20T07:13:35;98708.91;;;17.75;97.40
22653;BME280;11493;43.344;26.226;2022-11-20T07:16:05;98706.63;;;17.81;97.02
22653;BME280;11493;43.344;26.226;2022-11-20T07:18:33;98714.25;;;17.91;96.96
22653;BME280;11493;43.344;26.226;2022-11-20T07:21:05;98713.63;;;18.04;96.54
22653;BME280;11493;43.344;26.226;2022-11-20T07:23:32;98710.19;;;18.15;96.39
22653;BME280;11493;43.344;26.226;2022-11-20T07:26:08;98738.31;;;18.39;95.64
22653;BME280;11493;43.344;26.226;2022-11-20T07:28:36;98744.06;;;18.57;94.99
22653;BME280;11493;43.344;26.226;2022-11-20T07:31:04;98737.84;;;18.71;94.04
22653;BME280;11493;43.344;26.226;2022-11-20T07:33:31;98753.09;;;18.81;93.00
22653;BME280;11493;43.344;26.226;2022-11-20T07:36:02;98765.53;;;18.90;90.82
22653;BME280;11493;43.344;26.226;2022-11-20T07:38:30;98776.34;;;18.99;90.19
22653;BME280;11493;43.344;26.226;2022-11-20T07:40:58;98774.03;;;19.04;88.79
22653;BME280;11493;43.344;26.226;2022-11-20T07:43:28;98791.22;;;19.14;88.05
22653;BME280;11493;43.344;26.226;2022-11-20T07:45:57;98779.38;;;19.24;87.55
22653;BME280;11493;43.344;26.226;2022-11-20T07:48:28;98782.13;;;19.20;87.52
22653;BME280;11493;43.344;26.226;2022-11-20T07:50:56;98796.69;;;18.99;88.98
22653;BME280;11493;43.344;26.226;2022-11-20T07:53:25;98800.47;;;18.81;89.41
22653;BME280;11493;43.344;26.226;2022-11-20T07:55:53;98801.38;;;18.55;89.84
22653;BME280;11493;43.344;26.226;2022-11-20T07:58:21;98801.72;;;18.50;90.13
22653;BME280;11493;43.344;26.226;2022-11-20T08:00:52;98815.31;;;17.95;90.34
22653;BME280;11493;43.344;26.226;2022-11-20T08:03:21;98814.47;;;17.64;91.70
22653;BME280;11493;43.344;26.226;2022-11-20T08:05:51;98823.59;;;17.38;93.16
22653;BME280;11493;43.344;26.226;2022-11-20T08:08:19;98832.50;;;17.25;93.11
22653;BME280;11493;43.344;26.226;2022-11-20T08:10:50;98817.25;;;16.92;93.81
22653;BME280;11493;43.344;26.226;2022-11-20T08:13:18;98823.41;;;16.82;94.61
22653;BME280;11493;43.344;26.226;2022-11-20T08:16:04;98834.38;;;16.56;95.94
22653;BME280;11493;43.344;26.226;2022-11-20T08:18:34;98798.75;;;16.19;96.82
22653;BME280;11493;43.344;26.226;2022-11-20T08:21:03;98826.84;;;16.56;95.88
22653;BME280;11493;43.344;26.226;2022-11-20T08:23:31;98838.47;;;16.42;95.72
22653;BME280;11493;43.344;26.226;2022-11-20T08:25:59;98840.69;;;16.33;96.36
22653;BME280;11493;43.344;26.226;2022-11-20T08:28:26;98842.13;;;16.08;95.52
22653;BME280;11493;43.344;26.226;2022-11-20T08:30:59;98852.63;;;15.99;95.55
22653;BME280;11493;43.344;26.226;2022-11-20T08:33:27;98864.91;;;15.82;96.46
22653;BME280;11493;43.344;26.226;2022-11-20T08:36:01;98865.28;;;15.65;96.12
22653;BME280;11493;43.344;26.226;2022-11-20T08:38:30;98873.78;;;15.40;97.66
22653;BME280;11493;43.344;26.226;2022-11-20T08:41:01;98879.88;;;15.46;96.51
22653;BME280;11493;43.344;26.226;2022-11-20T08:43:47;98873.34;;;15.23;98.41
22653;BME280;11493;43.344;26.226;2022-11-20T08:46:15;98874.41;;;15.34;98.35
22653;BME280;11493;43.344;26.226;2022-11-20T08:48:43;98874.59;;;15.41;97.98
22653;BME280;11493;43.344;26.226;2022-11-20T08:51:15;98880.78;;;15.50;96.88
22653;BME280;11493;43.344;26.226;2022-11-20T08:53:42;98877.03;;;15.58;96.67
22653;BME280;11493;43.344;26.226;2022-11-20T08:56:10;98888.19;;;15.46;97.38
22653;BME280;11493;43.344;26.226;2022-11-20T08:58:37;98887.75;;;15.44;97.10
22653;BME280;11493;43.344;26.226;2022-11-20T09:01:26;98889.63;;;15.40;97.52
22653;BME280;11493;43.344;26.226;2022-11-20T09:03:57;98880.59;;;15.43;97.38
22653;BME280;11493;43.344;26.226;2022-11-20T09:06:25;98868.78;;;15.46;97.48
22653;BME280;11493;43.344;26.226;2022-11-20T09:08:53;98860.66;;;15.37;97.27
22653;BME280;11493;43.344;26.226;2022-11-20T09:11:21;98864.56;;;15.21;97.95
22653;BME280;11493;43.344;26.226;2022-11-20T09:13:51;98882.09;;;15.40;97.80
22653;BME280;11493;43.344;26.226;2022-11-20T09:16:19;98860.81;;;15.29;97.46
22653;BME280;11493;43.344;26.226;2022-11-20T09:18:46;98865.66;;;15.32;96.77
22653;BME280;11493;43.344;26.226;2022-11-20T09:21:33;98870.56;;;15.23;95.99
22653;BME280;11493;43.344;26.226;2022-11-20T09:24:00;98862.31;;;15.10;93.93
22653;BME280;11493;43.344;26.226;2022-11-20T09:26:30;98863.38;;;14.74;95.16
22653;BME280;11493;43.344;26.226;2022-11-20T09:28:58;98863.72;;;14.73;95.88
22653;BME280;11493;43.344;26.226;2022-11-20T09:31:25;98846.44;;;14.64;96.07
22653;BME280;11493;43.344;26.226;2022-11-20T09:33:53;98844.63;;;14.56;96.93
22653;BME280;11493;43.344;26.226;2022-11-20T09:36:21;98841.41;;;14.54;97.17
22653;BME280;11493;43.344;26.226;2022-11-20T09:38:48;98857.31;;;14.57;97.30
22653;BME280;11493;43.344;26.226;2022-11-20T09:44:47;98856.66;;;14.48;99.51
22653;BME280;11493;43.344;26.226;2022-11-20T09:53:06;98845.25;;;14.09;96.66
22653;BME280;11493;43.344;26.226;2022-11-20T09:55:38;98820.63;;;13.92;96.70
22653;BME280;11493;43.344;26.226;2022-11-20T09:58:07;98852.88;;;14.00;97.97
22653;BME280;11493;43.344;26.226;2022-11-20T10:00:39;98854.13;;;14.02;98.55
22653;BME280;11493;43.344;26.226;2022-11-20T10:03:20;98840.41;;;14.06;98.81
22653;BME280;11493;43.344;26.226;2022-11-20T10:05:54;98834.13;;;14.21;98.93
22653;BME280;11493;43.344;26.226;2022-11-20T10:08:25;98823.22;;;14.40;98.01
22653;BME280;11493;43.344;26.226;2022-11-20T10:11:13;98809.00;;;14.54;96.77
22653;BME280;11493;43.344;26.226;2022-11-20T10:13:56;98812.25;;;14.72;96.45
22653;BME280;11493;43.344;26.226;2022-11-20T10:29:33;98816.84;;;15.27;92.66
22653;BME280;11493;43.344;26.226;2022-11-20T10:32:04;98814.16;;;15.47;91.90
22653;BME280;11493;43.344;26.226;2022-11-20T10:37:23;98803.06;;;15.47;92.87
22653;BME280;11493;43.344;26.226;2022-11-20T10:40:28;98807.84;;;15.65;91.93
22653;BME280;11493;43.344;26.226;2022-11-20T10:43:03;98806.03;;;15.73;90.82
22653;BME280;11493;43.344;26.226;2022-11-20T10:48:27;98811.69;;;15.76;90.88
22653;BME280;11493;43.344;26.226;2022-11-20T10:56:54;98825.25;;;15.82;91.39
22653;BME280;11493;43.344;26.226;2022-11-20T11:00:21;98821.06;;;15.88;91.83
22653;BME280;11493;43.344;26.226;2022-11-20T11:02:51;98811.78;;;15.99;91.79
22653;BME280;11493;43.344;26.226;2022-11-20T11:08:15;98797.28;;;16.06;90.68
22653;BME280;11493;43.344;26.226;2022-11-20T11:10:55;98804.44;;;16.07;90.56
22653;BME280;11493;43.344;26.226;2022-11-20T11:13:29;98794.06;;;16.04;90.19
22653;BME280;11493;43.344;26.226;2022-11-20T11:15:57;98796.84;;;16.04;90.03
22653;BME280;11493;43.344;26.226;2022-11-20T11:18:33;98787.47;;;15.93;90.38
22653;BME280;11493;43.344;26.226;2022-11-20T11:21:04;98807.06;;;16.00;90.41
22653;BME280;11493;43.344;26.226;2022-11-20T11:23:40;98792.56;;;15.91;90.37
22653;BME280;11493;43.344;26.226;2022-11-20T11:26:23;98809.94;;;15.88;91.12
22653;BME280;11493;43.344;26.226;2022-11-20T11:29:03;98802.09;;;15.74;91.62
22653;BME280;11493;43.344;26.226;2022-11-20T11:31:33;98791.56;;;15.64;92.20
22653;BME280;11493;43.344;26.226;2022-11-20T11:36:34;98772.03;;;15.41;93.77
22653;BME280;11493;43.344;26.226;2022-11-20T11:39:03;98795.25;;;15.52;93.62
22653;BME280;11493;43.344;26.226;2022-11-20T11:41:33;98795.25;;;15.52;93.74
22653;BME280;11493;43.344;26.226;2022-11-20T11:44:17;98792.78;;;15.47;94.21
22653;BME280;11493;43.344;26.226;2022-11-20T11:47:06;98780.44;;;15.44;94.96
22653;BME280;11493;43.344;26.226;2022-11-20T11:49:39;98776.06;;;15.43;94.56
22653;BME280;11493;43.344;26.226;2022-11-20T11:55:04;98779.78;;;15.51;94.29
22653;BME280;11493;43.344;26.226;2022-11-20T11:57:41;98773.09;;;15.52;94.65
22653;BME280;11493;43.344;26.226;2022-11-20T12:00:18;98767.44;;;15.49;94.45
22653;BME280;11493;43.344;26.226;2022-11-20T12:05:27;98778.25;;;15.54;94.95
22653;BME280;11493;43.344;26.226;2022-11-20T12:08:21;98774.06;;;15.44;94.76
22653;BME280;11493;43.344;26.226;2022-11-20T12:16:04;98766.94;;;15.43;94.92
22653;BME280;11493;43.344;26.226;2022-11-20T12:18:31;98762.56;;;15.26;95.40
22653;BME280;11493;43.344;26.226;2022-11-20T12:29:53;98772.56;;;15.31;96.04
22653;BME280;11493;43.344;26.226;2022-11-20T12:33:02;98761.84;;;15.29;96.30
22653;BME280;11493;43.344;26.226;2022-11-20T12:47:46;98786.25;;;15.08;97.46
22653;BME280;11493;43.344;26.226;2022-11-20T12:53:25;98785.28;;;14.85;99.35
22653;BME280;11493;43.344;26.226;2022-11-20T13:07:17;98825.25;;;13.75;100.00
22653;BME280;11493;43.344;26.226;2022-11-20T13:09:48;98824.56;;;13.78;100.00
22653;BME280;11493;43.344;26.226;2022-11-20T13:12:25;98828.97;;;13.67;100.00
22653;BME280;11493;43.344;26.226;2022-11-20T13:17:57;98821.13;;;13.69;100.00
22653;BME280;11493;43.344;26.226;2022-11-20T13:20:26;98833.78;;;13.70;100.00
22653;BME280;11493;43.344;26.226;2022-11-20T13:22:57;98822.75;;;13.58;100.00
22653;BME280;11493;43.344;26.226;2022-11-20T13:25:34;98818.81;;;13.59;100.00
22653;BME280;11493;43.344;26.226;2022-11-20T13:30:54;98815.13;;;13.67;100.00
22653;BME280;11493;43.344;26.226;2022-11-20T13:36:02;98823.09;;;13.57;100.00
22653;BME280;11493;43.344;26.226;2022-11-20T13:38:49;98813.66;;;13.58;100.00
22653;BME280;11493;43.344;26.226;2022-11-20T13:41:31;98802.03;;;13.40;100.00
22653;BME280;11493;43.344;26.226;2022-11-20T13:44:26;98802.25;;;13.47;100.00
22653;BME280;11493;43.344;26.226;2022-11-20T13:46:58;98806.28;;;13.49;100.00
22653;BME280;11493;43.344;26.226;2022-11-20T13:49:39;98816.91;;;13.35;100.00
22653;BME280;11493;43.344;26.226;2022-11-20T14:00:57;98821.38;;;13.52;100.00
22653;BME280;11493;43.344;26.226;2022-11-20T14:03:25;98824.59;;;13.54;100.00
22653;BME280;11493;43.344;26.226;2022-11-20T14:08:51;98815.25;;;13.59;100.00
22653;BME280;11493;43.344;26.226;2022-11-20T14:11:24;98823.44;;;13.67;100.00
22653;BME280;11493;43.344;26.226;2022-11-20T14:13:59;98838.16;;;13.71;100.00
22653;BME280;11493;43.344;26.226;2022-11-20T14:16:44;98836.78;;;13.65;100.00
22653;BME280;11493;43.344;26.226;2022-11-20T14:21:49;98833.22;;;13.65;100.00
22653;BME280;11493;43.344;26.226;2022-11-20T14:24:22;98825.03;;;13.56;100.00
22653;BME280;11493;43.344;26.226;2022-11-20T14:26:58;98818.03;;;13.46;100.00
22653;BME280;11493;43.344;26.226;2022-11-20T14:29:33;98805.59;;;13.53;100.00
22653;BME280;11493;43.344;26.226;2022-11-20T14:32:03;98797.88;;;13.58;100.00
22653;BME280;11493;43.344;26.226;2022-11-20T14:34:38;98804.19;;;13.59;100.00
22653;BME280;11493;43.344;26.226;2022-11-20T14:37:19;98802.94;;;13.56;100.00
22653;BME280;11493;43.344;26.226;2022-11-20T14:39:55;98796.81;;;13.63;100.00
22653;BME280;11493;43.344;26.226;2022-11-20T14:42:29;98785.53;;;13.56;100.00
22653;BME280;11493;43.344;26.226;2022-11-20T14:44:59;98785.91;;;13.54;100.00
22653;BME280;11493;43.344;26.226;2022-11-20T14:47:29;98796.59;;;13.56;100.00
22653;BME280;11493;43.344;26.226;2022-11-20T14:49:57;98794.88;;;13.51;100.00
22653;BME280;11493;43.344;26.226;2022-11-20T14:52:29;98804.25;;;13.34;100.00
22653;BME280;11493;43.344;26.226;2022-11-20T14:54:58;98803.91;;;13.24;100.00
22653;BME280;11493;43.344;26.226;2022-11-20T14:57:30;98795.03;;;13.18;100.00
22653;BME280;11493;43.344;26.226;2022-11-20T15:02:40;98784.63;;;13.15;100.00